createdAt,value
2022-11-19T00:00:20.479Z,-5.60
2022-11-19T00:01:20.473Z,-5.61
2022-11-19T00:02:20.475Z,-5.71
2022-11-19T00:03:20.358Z,-5.66
2022-11-19T00:04:20.411Z,-5.67
2022-11-19T00:05:20.257Z,-5.67
2022-11-19T00:06:20.212Z,-5.67
2022-11-19T00:07:20.352Z,-5.75
2022-11-19T00:08:20.139Z,-5.72
2022-11-19T00:09:20.528Z,-5.72
2022-11-19T00:10:20.052Z,-5.68
2022-11-19T00:11:20.007Z,-5.64
2022-11-19T00:12:19.964Z,-5.64
2022-11-19T00:13:19.989Z,-5.63
2022-11-19T00:14:19.881Z,-5.66
2022-11-19T00:15:19.846Z,-5.66
2022-11-19T00:16:19.802Z,-5.74
2022-11-19T00:17:19.766Z,-5.71
2022-11-19T00:18:19.793Z,-5.79
2022-11-19T00:19:19.992Z,-5.72
2022-11-19T00:20:19.639Z,-5.74
2022-11-19T00:21:19.599Z,-5.75
2022-11-19T00:22:19.556Z,-5.85
2022-11-19T00:23:19.512Z,-5.84
2022-11-19T00:24:19.540Z,-5.82
2022-11-19T00:25:19.435Z,-5.78
2022-11-19T00:26:19.392Z,-5.76
2022-11-19T00:27:19.355Z,-5.86
2022-11-19T00:28:19.316Z,-5.78
2022-11-19T00:29:19.841Z,-5.81
2022-11-19T00:30:40.638Z,-5.74
2022-11-19T00:31:19.186Z,-5.75
2022-11-19T00:32:19.148Z,-5.71
2022-11-19T00:33:19.100Z,-5.64
2022-11-19T00:34:19.068Z,-5.78
2022-11-19T00:35:19.021Z,-5.66
2022-11-19T00:36:19.040Z,-5.78
2022-11-19T00:37:18.934Z,-5.72
2022-11-19T00:38:18.893Z,-5.71
2022-11-19T00:39:19.265Z,-5.67
2022-11-19T00:40:18.811Z,-5.67
2022-11-19T00:41:18.769Z,-5.85
2022-11-19T00:42:18.785Z,-5.89
2022-11-19T00:43:18.685Z,-5.93
2022-11-19T00:44:18.652Z,-5.99
2022-11-19T00:45:18.605Z,-5.86
2022-11-19T00:46:18.565Z,-5.86
2022-11-19T00:47:18.533Z,-5.95
2022-11-19T00:48:18.538Z,-5.92
2022-11-19T00:49:18.723Z,-5.86
2022-11-19T00:50:18.405Z,-5.78
2022-11-19T00:51:18.363Z,-5.90
2022-11-19T00:52:18.309Z,-5.92
2022-11-19T00:53:18.284Z,-5.95
2022-11-19T00:54:18.298Z,-5.97
2022-11-19T00:55:18.191Z,-5.96
2022-11-19T00:56:18.155Z,-5.96
2022-11-19T00:57:18.114Z,-5.93
2022-11-19T00:58:18.067Z,-5.93
2022-11-19T00:59:18.165Z,-6.00
2022-11-19T01:00:18.082Z,-6.07
2022-11-19T01:01:17.971Z,-6.07
2022-11-19T01:02:17.897Z,-6.07
2022-11-19T01:03:17.876Z,-6.03
2022-11-19T01:04:17.816Z,-6.03
2022-11-19T01:05:17.777Z,-6.13
2022-11-19T01:06:19.375Z,-6.03
2022-11-19T01:07:17.748Z,-6.07
2022-11-19T01:08:17.661Z,-6.11
2022-11-19T01:09:17.883Z,-6.14
2022-11-19T01:10:17.575Z,-6.15
2022-11-19T01:11:17.533Z,-6.17
2022-11-19T01:12:17.552Z,-6.11
2022-11-19T01:13:17.443Z,-6.10
2022-11-19T01:14:17.402Z,-6.07
2022-11-19T01:15:17.362Z,-5.99
2022-11-19T01:16:17.322Z,-6.07
2022-11-19T01:17:17.277Z,-6.02
2022-11-19T01:18:17.300Z,-5.99
2022-11-19T01:19:17.769Z,-5.97
2022-11-19T01:20:17.187Z,-6.03
2022-11-19T01:21:17.121Z,-5.99
2022-11-19T01:22:17.070Z,-6.10
2022-11-19T01:23:17.029Z,-6.14
2022-11-19T01:24:17.052Z,-6.15
2022-11-19T01:25:16.955Z,-6.15
2022-11-19T01:26:16.908Z,-6.14
2022-11-19T01:27:16.863Z,-6.14
2022-11-19T01:28:16.823Z,-6.10
2022-11-19T01:29:17.027Z,-6.05
2022-11-19T01:30:16.796Z,-5.93
2022-11-19T01:31:16.712Z,-5.95
2022-11-19T01:32:16.649Z,-5.97
2022-11-19T01:33:16.614Z,-5.93
2022-11-19T01:34:16.569Z,-5.93
2022-11-19T01:35:16.532Z,-5.96
2022-11-19T01:36:16.557Z,-5.99
2022-11-19T01:37:16.455Z,-6.02
2022-11-19T01:38:16.428Z,-5.95
2022-11-19T01:39:16.500Z,-5.96
2022-11-19T01:40:16.320Z,-5.97
2022-11-19T01:41:16.292Z,-5.95
2022-11-19T01:42:16.236Z,-5.96
2022-11-19T01:43:16.207Z,-5.97
2022-11-19T01:44:16.212Z,-5.95
2022-11-19T01:45:16.118Z,-5.97
2022-11-19T01:46:16.073Z,-6.02
2022-11-19T01:47:16.038Z,-5.84
2022-11-19T01:48:15.988Z,-5.96
2022-11-19T01:49:16.003Z,-5.95
2022-11-19T01:50:15.908Z,-5.97
2022-11-19T01:51:15.864Z,-6.07
2022-11-19T01:52:15.826Z,-6.10
2022-11-19T01:53:15.788Z,-6.14
2022-11-19T01:54:15.812Z,-6.08
2022-11-19T01:55:15.703Z,-6.14
2022-11-19T01:56:15.659Z,-6.07
2022-11-19T01:57:15.616Z,-6.00
2022-11-19T01:58:15.580Z,-5.95
2022-11-19T01:59:15.537Z,-5.92
2022-11-19T02:00:15.545Z,-6.08
2022-11-19T02:01:15.497Z,-6.00
2022-11-19T02:02:15.405Z,-6.03
2022-11-19T02:03:15.374Z,-6.05
2022-11-19T02:04:15.328Z,-6.14
2022-11-19T02:05:15.298Z,-6.17
2022-11-19T02:06:15.292Z,-6.13
2022-11-19T02:07:15.249Z,-6.20
2022-11-19T02:08:15.162Z,-6.23
2022-11-19T02:09:15.123Z,-6.24
2022-11-19T02:10:15.080Z,-6.28
2022-11-19T02:11:15.038Z,-6.32
2022-11-19T02:12:15.055Z,-6.34
2022-11-19T02:13:14.958Z,-6.21
2022-11-19T02:14:14.908Z,-6.32
2022-11-19T02:15:14.878Z,-6.14
2022-11-19T02:16:14.856Z,-6.21
2022-11-19T02:17:14.797Z,-6.14
2022-11-19T02:18:14.813Z,-6.20
2022-11-19T02:19:14.705Z,-6.21
2022-11-19T02:20:14.655Z,-6.20
2022-11-19T02:21:14.619Z,-6.10
2022-11-19T02:22:14.573Z,-6.15
2022-11-19T02:23:14.540Z,-6.11
2022-11-19T02:24:14.561Z,-6.17
2022-11-19T02:25:14.454Z,-6.17
2022-11-19T02:26:14.414Z,-6.20
2022-11-19T02:27:14.370Z,-6.18
2022-11-19T02:28:14.330Z,-6.17
2022-11-19T02:29:14.278Z,-6.20
2022-11-19T02:30:14.323Z,-6.29
2022-11-19T02:31:14.207Z,-6.36
2022-11-19T02:32:14.158Z,-6.36
2022-11-19T02:33:14.120Z,-6.36
2022-11-19T02:34:14.085Z,-6.34
2022-11-19T02:35:14.035Z,-6.35
2022-11-19T02:36:14.048Z,-6.38
2022-11-19T02:37:14.011Z,-6.38
2022-11-19T02:38:13.912Z,-6.32
2022-11-19T02:39:13.869Z,-6.36
2022-11-19T02:40:13.820Z,-6.34
2022-11-19T02:41:13.787Z,-6.32
2022-11-19T02:42:13.791Z,-6.35
2022-11-19T02:43:13.695Z,-6.41
2022-11-19T02:44:13.742Z,-6.35
2022-11-19T02:45:13.625Z,-6.35
2022-11-19T02:46:13.578Z,-6.36
2022-11-19T02:47:13.594Z,-6.34
2022-11-19T02:48:13.493Z,-6.38
2022-11-19T02:49:13.446Z,-6.39
2022-11-19T02:50:13.418Z,-6.34
2022-11-19T02:51:13.371Z,-6.36
2022-11-19T02:52:13.371Z,-6.34
2022-11-19T02:53:13.282Z,-6.52
2022-11-19T02:54:13.240Z,-6.56
2022-11-19T02:55:13.194Z,-6.56
2022-11-19T02:56:13.161Z,-6.53
2022-11-19T02:57:13.117Z,-6.56
2022-11-19T02:58:13.147Z,-6.56
2022-11-19T02:59:13.026Z,-6.52
2022-11-19T03:00:12.989Z,-6.56
2022-11-19T03:01:13.022Z,-6.58
2022-11-19T03:02:12.911Z,-6.66
2022-11-19T03:03:12.862Z,-6.69
2022-11-19T03:04:12.900Z,-6.81
2022-11-19T03:05:12.791Z,-6.81
2022-11-19T03:06:12.753Z,-6.76
2022-11-19T03:07:12.773Z,-6.78
2022-11-19T03:08:12.730Z,-6.72
2022-11-19T03:09:12.618Z,-6.69
2022-11-19T03:10:12.634Z,-6.74
2022-11-19T03:11:12.538Z,-6.76
2022-11-19T03:12:12.485Z,-6.69
2022-11-19T03:13:12.451Z,-6.71
2022-11-19T03:14:12.413Z,-6.71
2022-11-19T03:15:12.436Z,-6.69
2022-11-19T03:16:12.319Z,-6.68
2022-11-19T03:17:12.288Z,-6.69
2022-11-19T03:18:12.232Z,-6.74
2022-11-19T03:19:12.972Z,-6.81
2022-11-19T03:20:12.265Z,-6.79
2022-11-19T03:21:13.090Z,-6.83
2022-11-19T03:22:12.067Z,-6.71
2022-11-19T03:23:12.031Z,-6.78
2022-11-19T03:24:11.992Z,-6.86
2022-11-19T03:25:12.003Z,-6.74
2022-11-19T03:26:11.909Z,-6.75
2022-11-19T03:27:11.856Z,-6.72
2022-11-19T03:28:11.824Z,-6.68
2022-11-19T03:29:11.782Z,-6.76
2022-11-19T03:30:11.741Z,-6.60
2022-11-19T03:31:11.791Z,-6.60
2022-11-19T03:32:11.687Z,-6.60
2022-11-19T03:33:11.610Z,-6.56
2022-11-19T03:34:11.571Z,-6.54
2022-11-19T03:35:11.585Z,-6.60
2022-11-19T03:36:11.484Z,-6.58
2022-11-19T03:37:11.444Z,-6.60
2022-11-19T03:38:11.404Z,-6.46
2022-11-19T03:39:11.363Z,-6.61
2022-11-19T03:40:11.374Z,-6.69
2022-11-19T03:41:11.279Z,-6.76
2022-11-19T03:42:11.238Z,-6.68
2022-11-19T03:43:11.191Z,-6.58
2022-11-19T03:44:11.148Z,-6.61
2022-11-19T03:45:11.160Z,-6.53
2022-11-19T03:46:11.069Z,-6.56
2022-11-19T03:47:11.026Z,-6.54
2022-11-19T03:48:10.981Z,-6.56
2022-11-19T03:49:10.944Z,-6.47
2022-11-19T03:50:10.903Z,-6.53
2022-11-19T03:51:10.921Z,-6.58
2022-11-19T03:52:10.817Z,-6.54
2022-11-19T03:53:10.775Z,-6.54
2022-11-19T03:54:10.730Z,-6.58
2022-11-19T03:55:10.689Z,-6.61
2022-11-19T03:56:10.752Z,-6.58
2022-11-19T03:57:10.613Z,-6.56
2022-11-19T03:58:10.566Z,-6.56
2022-11-19T03:59:10.523Z,-6.54
2022-11-19T04:00:10.482Z,-6.47
2022-11-19T04:01:10.443Z,-6.54
2022-11-19T04:02:10.509Z,-6.53
2022-11-19T04:03:10.353Z,-6.54
2022-11-19T04:04:10.319Z,-6.42
2022-11-19T04:05:10.279Z,-6.44
2022-11-19T04:06:10.249Z,-6.47
2022-11-19T04:07:10.301Z,-6.36
2022-11-19T04:08:10.156Z,-6.46
2022-11-19T04:09:10.108Z,-6.56
2022-11-19T04:10:10.066Z,-6.49
2022-11-19T04:11:14.085Z,-6.46
2022-11-19T04:12:10.066Z,-6.53
2022-11-19T04:13:09.945Z,-6.50
2022-11-19T04:14:09.891Z,-6.47
2022-11-19T04:15:09.859Z,-6.49
2022-11-19T04:16:09.813Z,-6.47
2022-11-19T04:17:09.775Z,-6.32
2022-11-19T04:18:09.797Z,-6.38
2022-11-19T04:19:09.693Z,-6.39
2022-11-19T04:20:09.644Z,-6.39
2022-11-19T04:21:09.606Z,-6.34
2022-11-19T04:22:09.566Z,-6.36
2022-11-19T04:23:09.526Z,-6.32
2022-11-19T04:24:09.543Z,-6.41
2022-11-19T04:25:09.443Z,-6.32
2022-11-19T04:26:09.393Z,-6.39
2022-11-19T04:27:09.358Z,-6.41
2022-11-19T04:28:09.309Z,-6.36
2022-11-19T04:29:09.273Z,-6.35
2022-11-19T04:30:09.293Z,-6.36
2022-11-19T04:31:12.355Z,-6.31
2022-11-19T04:32:09.154Z,-6.39
2022-11-19T04:33:09.110Z,-6.38
2022-11-19T04:34:09.065Z,-6.32
2022-11-19T04:35:09.014Z,-6.44
2022-11-19T04:36:09.033Z,-6.54
2022-11-19T04:37:08.941Z,-6.56
2022-11-19T04:38:08.899Z,-6.47
2022-11-19T04:39:08.856Z,-6.52
2022-11-19T04:40:08.811Z,-6.54
2022-11-19T04:41:08.766Z,-6.54
2022-11-19T04:42:08.793Z,-6.54
2022-11-19T04:43:08.686Z,-6.52
2022-11-19T04:44:08.649Z,-6.46
2022-11-19T04:45:08.600Z,-6.46
2022-11-19T04:46:08.566Z,-6.39
2022-11-19T04:47:08.516Z,-6.53
2022-11-19T04:48:08.539Z,-6.47
2022-11-19T04:49:08.441Z,-6.39
2022-11-19T04:50:08.398Z,-6.46
2022-11-19T04:51:08.358Z,-6.50
2022-11-19T04:52:08.341Z,-6.53
2022-11-19T04:53:08.280Z,-6.54
2022-11-19T04:54:08.322Z,-6.54
2022-11-19T04:55:08.188Z,-6.47
2022-11-19T04:56:08.146Z,-6.54
2022-11-19T04:57:08.106Z,-6.54
2022-11-19T04:58:08.056Z,-6.38
2022-11-19T04:59:08.018Z,-6.47
2022-11-19T05:00:08.036Z,-6.54
2022-11-19T05:01:07.977Z,-6.53
2022-11-19T05:02:07.897Z,-6.53
2022-11-19T05:03:07.847Z,-6.61
2022-11-19T05:04:07.808Z,-6.58
2022-11-19T05:05:07.901Z,-6.61
2022-11-19T05:06:07.799Z,-6.56
2022-11-19T05:07:07.730Z,-6.56
2022-11-19T05:08:07.640Z,-6.53
2022-11-19T05:09:07.607Z,-6.52
2022-11-19T05:10:07.575Z,-6.54
2022-11-19T05:11:07.519Z,-6.49
2022-11-19T05:12:07.534Z,-6.39
2022-11-19T05:13:07.427Z,-6.47
2022-11-19T05:14:07.392Z,-6.36
2022-11-19T05:15:07.358Z,-6.35
2022-11-19T05:16:07.310Z,-6.32
2022-11-19T05:17:07.272Z,-6.46
2022-11-19T05:18:07.298Z,-6.50
2022-11-19T05:19:07.203Z,-6.50
2022-11-19T05:20:07.150Z,-6.50
2022-11-19T05:21:07.178Z,-6.54
2022-11-19T05:22:07.098Z,-6.44
2022-11-19T05:23:07.017Z,-6.54
2022-11-19T05:24:07.034Z,-6.50
2022-11-19T05:25:06.941Z,-6.31
2022-11-19T05:26:06.892Z,-6.39
2022-11-19T05:27:06.849Z,-6.21
2022-11-19T05:28:06.803Z,-6.20
2022-11-19T05:29:06.771Z,-6.15
2022-11-19T05:30:06.801Z,-6.13
2022-11-19T05:31:06.685Z,-6.14
2022-11-19T05:32:06.650Z,-6.02
2022-11-19T05:33:06.597Z,-6.07
2022-11-19T05:34:06.556Z,-5.93
2022-11-19T05:35:06.524Z,-5.92
2022-11-19T05:36:06.546Z,-5.92
2022-11-19T05:37:06.434Z,-5.90
2022-11-19T05:38:06.409Z,-5.89
2022-11-19T05:39:06.357Z,-5.89
2022-11-19T05:40:06.317Z,-5.75
2022-11-19T05:41:06.271Z,-5.76
2022-11-19T05:42:06.286Z,-5.78
2022-11-19T05:43:06.188Z,-5.72
2022-11-19T05:44:06.150Z,-5.75
2022-11-19T05:45:06.105Z,-5.75
2022-11-19T05:46:06.063Z,-5.79
2022-11-19T05:47:06.022Z,-5.71
2022-11-19T05:48:06.047Z,-5.81
2022-11-19T05:49:05.935Z,-5.74
2022-11-19T05:50:05.896Z,-5.78
2022-11-19T05:51:05.861Z,-5.82
2022-11-19T05:52:05.825Z,-5.82
2022-11-19T05:53:05.786Z,-5.74
2022-11-19T05:54:05.844Z,-5.76
2022-11-19T05:55:05.689Z,-5.85
2022-11-19T05:56:05.642Z,-5.78
2022-11-19T05:57:05.642Z,-5.84
2022-11-19T05:58:05.635Z,-5.86
2022-11-19T05:59:05.527Z,-5.89
2022-11-19T06:00:05.539Z,-5.74
2022-11-19T06:01:05.447Z,-5.72
2022-11-19T06:02:05.446Z,-5.74
2022-11-19T06:03:05.476Z,-5.76
2022-11-19T06:04:05.315Z,-5.68
2022-11-19T06:05:05.278Z,-5.64
2022-11-19T06:06:05.296Z,-5.78
2022-11-19T06:07:05.265Z,-5.75
2022-11-19T06:08:05.155Z,-5.78
2022-11-19T06:09:05.106Z,-5.71
2022-11-19T06:10:05.075Z,-5.72
2022-11-19T06:11:05.023Z,-5.89
2022-11-19T06:12:05.076Z,-5.78
2022-11-19T06:13:04.946Z,-5.75
2022-11-19T06:14:04.902Z,-5.75
2022-11-19T06:15:04.858Z,-5.74
2022-11-19T06:16:04.822Z,-5.76
2022-11-19T06:17:04.790Z,-5.71
2022-11-19T06:18:05.203Z,-5.75
2022-11-19T06:19:04.697Z,-5.76
2022-11-19T06:20:04.658Z,-5.79
2022-11-19T06:21:09.407Z,-5.85
2022-11-19T06:22:04.573Z,-5.84
2022-11-19T06:23:04.533Z,-5.75
2022-11-19T06:24:04.563Z,-5.84
2022-11-19T06:25:04.444Z,-5.93
2022-11-19T06:26:04.413Z,-5.90
2022-11-19T06:27:04.539Z,-5.92
2022-11-19T06:28:04.327Z,-5.89
2022-11-19T06:29:04.278Z,-5.96
2022-11-19T06:30:04.305Z,-5.96
2022-11-19T06:31:04.197Z,-5.89
2022-11-19T06:32:04.164Z,-5.99
2022-11-19T06:33:04.121Z,-5.92
2022-11-19T06:34:04.085Z,-5.95
2022-11-19T06:35:04.031Z,-5.89
2022-11-19T06:36:04.064Z,-5.81
2022-11-19T06:37:03.957Z,-5.90
2022-11-19T06:38:03.906Z,-5.89
2022-11-19T06:39:03.874Z,-5.97
2022-11-19T06:40:03.833Z,-5.95
2022-11-19T06:41:03.798Z,-5.99
2022-11-19T06:42:03.808Z,-6.07
2022-11-19T06:43:03.706Z,-6.08
2022-11-19T06:44:03.666Z,-6.00
2022-11-19T06:45:03.623Z,-6.00
2022-11-19T06:46:03.580Z,-6.00
2022-11-19T06:47:03.540Z,-5.97
2022-11-19T06:48:03.555Z,-5.93
2022-11-19T06:49:03.983Z,-5.96
2022-11-19T06:50:03.412Z,-5.93
2022-11-19T06:51:03.371Z,-5.95
2022-11-19T06:52:03.337Z,-6.00
2022-11-19T06:53:03.288Z,-5.97
2022-11-19T06:54:03.305Z,-6.00
2022-11-19T06:55:03.207Z,-6.07
2022-11-19T06:56:03.178Z,-6.05
2022-11-19T06:57:03.134Z,-6.07
2022-11-19T06:58:03.088Z,-6.03
2022-11-19T06:59:03.132Z,-5.99
2022-11-19T07:00:03.005Z,-6.00
2022-11-19T07:01:02.959Z,-5.93
2022-11-19T07:02:03.005Z,-5.92
2022-11-19T07:03:02.880Z,-5.97
2022-11-19T07:04:02.830Z,-5.99
2022-11-19T07:05:02.862Z,-5.95
2022-11-19T07:06:02.748Z,-5.93
2022-11-19T07:07:02.777Z,-5.96
2022-11-19T07:08:03.397Z,-5.90
2022-11-19T07:09:02.623Z,-5.93
2022-11-19T07:10:02.593Z,-6.00
2022-11-19T07:11:02.613Z,-5.86
2022-11-19T07:12:02.503Z,-5.84
2022-11-19T07:13:02.474Z,-5.79
2022-11-19T07:14:02.431Z,-5.76
2022-11-19T07:15:04.596Z,-5.71
2022-11-19T07:16:02.390Z,-5.64
2022-11-19T07:17:02.335Z,-5.71
2022-11-19T07:18:02.257Z,-5.68
2022-11-19T07:19:02.359Z,-5.66
2022-11-19T07:20:02.178Z,-5.72
2022-11-19T07:21:02.137Z,-5.61
2022-11-19T07:22:02.140Z,-5.61
2022-11-19T07:23:02.046Z,-5.57
2022-11-19T07:24:01.999Z,-5.54
2022-11-19T07:25:01.975Z,-5.47
2022-11-19T07:26:01.946Z,-5.43
2022-11-19T07:27:01.887Z,-5.53
2022-11-19T07:28:01.944Z,-5.45
2022-11-19T07:29:04.626Z,-5.45
2022-11-19T07:30:01.787Z,-5.46
2022-11-19T07:31:01.734Z,-5.38
2022-11-19T07:32:01.788Z,-5.29
2022-11-19T07:33:01.639Z,-5.27
2022-11-19T07:34:01.772Z,-5.24
2022-11-19T07:35:01.562Z,-5.19
2022-11-19T07:36:02.099Z,-5.22
2022-11-19T07:37:01.465Z,-5.13
2022-11-19T07:38:01.426Z,-5.08
2022-11-19T07:39:01.385Z,-5.10
2022-11-19T07:40:01.410Z,-5.05
2022-11-19T07:41:01.311Z,-5.14
2022-11-19T07:42:01.286Z,-5.09
2022-11-19T07:43:01.226Z,-5.06
2022-11-19T07:44:01.178Z,-5.09
2022-11-19T07:45:01.146Z,-5.13
2022-11-19T07:46:01.221Z,-5.13
2022-11-19T07:47:01.059Z,-5.06
2022-11-19T07:48:01.020Z,-5.17
2022-11-19T07:49:00.977Z,-5.09
2022-11-19T07:50:02.157Z,-5.10
2022-11-19T07:51:00.890Z,-5.17
2022-11-19T07:52:00.916Z,-5.05
2022-11-19T07:53:00.814Z,-5.05
2022-11-19T07:54:00.781Z,-5.05
2022-11-19T07:55:00.739Z,-5.03
2022-11-19T07:56:00.690Z,-5.00
2022-11-19T07:57:00.657Z,-5.03
2022-11-19T07:58:00.669Z,-4.92
2022-11-19T07:59:00.582Z,-4.89
2022-11-19T08:00:00.536Z,-4.88
2022-11-19T08:01:00.491Z,-4.84
2022-11-19T08:02:00.513Z,-4.81
2022-11-19T08:03:00.410Z,-4.70
2022-11-19T08:04:00.419Z,-4.66
2022-11-19T08:05:00.328Z,-4.55
2022-11-19T08:06:00.289Z,-4.52
2022-11-19T08:07:00.311Z,-4.43
2022-11-19T08:08:00.265Z,-4.39
2022-11-19T08:09:00.156Z,-4.34
2022-11-19T08:10:00.182Z,-4.20
2022-11-19T08:11:00.084Z,-4.09
2022-11-19T08:12:00.033Z,-4.03
2022-11-19T08:13:00.002Z,-3.95
2022-11-19T08:13:59.954Z,-3.88
2022-11-19T08:14:59.913Z,-3.69
2022-11-19T08:15:59.940Z,-3.52
2022-11-19T08:16:59.849Z,-3.38
2022-11-19T08:17:59.790Z,-3.33
2022-11-19T08:18:59.749Z,-3.30
2022-11-19T08:19:59.754Z,-3.15
2022-11-19T08:20:59.677Z,-3.02
2022-11-19T08:21:59.693Z,-2.89
2022-11-19T08:22:59.591Z,-2.86
2022-11-19T08:23:59.547Z,-2.66
2022-11-19T08:24:59.516Z,-2.60
2022-11-19T08:25:59.467Z,-2.53
2022-11-19T08:26:59.433Z,-2.41
2022-11-19T08:27:59.439Z,-2.30
2022-11-19T08:28:59.345Z,-2.21
2022-11-19T08:29:59.308Z,-2.10
2022-11-19T08:30:59.264Z,-2.02
2022-11-19T08:31:59.230Z,-1.79
2022-11-19T08:32:59.222Z,-1.66
2022-11-19T08:33:59.207Z,-1.69
2022-11-19T08:34:59.136Z,-1.56
2022-11-19T08:35:59.140Z,-1.54
2022-11-19T08:36:59.022Z,-1.46
2022-11-19T08:37:58.982Z,-1.37
2022-11-19T08:38:58.947Z,-1.23
2022-11-19T08:39:58.907Z,-1.07
2022-11-19T08:40:58.875Z,-1.05
2022-11-19T08:41:58.888Z,-1.05
2022-11-19T08:42:58.796Z,-0.91
2022-11-19T08:43:58.755Z,-0.82
2022-11-19T08:44:58.707Z,-0.85
2022-11-19T08:45:58.673Z,-0.75
2022-11-19T08:46:58.697Z,-0.82
2022-11-19T08:47:58.596Z,-0.61
2022-11-19T08:48:58.554Z,-0.59
2022-11-19T08:49:58.523Z,-0.50
2022-11-19T08:50:58.485Z,-0.32
2022-11-19T08:51:58.512Z,-0.23
2022-11-19T08:52:58.408Z,-0.23
2022-11-19T08:53:58.366Z,-0.14
2022-11-19T08:54:58.329Z,-0.08
2022-11-19T08:55:58.282Z,0.01
2022-11-19T08:56:58.245Z,0.11
2022-11-19T08:57:58.270Z,0.10
2022-11-19T08:59:02.523Z,0.07
2022-11-19T09:00:01.461Z,0.03
2022-11-19T09:00:58.160Z,0.07
2022-11-19T09:01:58.068Z,0.10
2022-11-19T09:02:58.019Z,0.22
2022-11-19T09:03:58.029Z,0.28
2022-11-19T09:04:57.938Z,0.31
2022-11-19T09:05:57.898Z,0.29
2022-11-19T09:06:57.931Z,0.37
2022-11-19T09:07:57.816Z,0.43
2022-11-19T09:08:57.800Z,0.41
2022-11-19T09:09:57.841Z,0.31
2022-11-19T09:10:57.707Z,0.32
2022-11-19T09:11:57.659Z,0.41
2022-11-19T09:12:57.632Z,0.37
2022-11-19T09:13:57.591Z,0.50
2022-11-19T09:14:57.551Z,0.58
2022-11-19T09:15:57.577Z,0.49
2022-11-19T09:16:57.474Z,0.58
2022-11-19T09:17:57.432Z,0.56
2022-11-19T09:18:57.468Z,0.60
2022-11-19T09:19:57.353Z,0.65
2022-11-19T09:20:57.318Z,0.77
2022-11-19T09:21:57.347Z,0.73
2022-11-19T09:22:57.243Z,0.74
2022-11-19T09:23:57.216Z,0.70
2022-11-19T09:24:57.175Z,0.73
2022-11-19T09:25:57.140Z,0.70
2022-11-19T09:27:01.035Z,0.70
2022-11-19T09:27:57.113Z,0.73
2022-11-19T09:28:57.015Z,0.68
2022-11-19T09:29:57.047Z,0.68
2022-11-19T09:30:56.949Z,0.73
2022-11-19T09:31:56.902Z,0.73
2022-11-19T09:32:56.869Z,0.70
2022-11-19T09:33:56.892Z,0.58
2022-11-19T09:34:56.793Z,0.63
2022-11-19T09:35:56.751Z,0.59
2022-11-19T09:36:56.739Z,0.55
2022-11-19T09:37:56.680Z,0.49
2022-11-19T09:38:56.634Z,0.52
2022-11-19T09:39:56.662Z,0.43
2022-11-19T09:40:56.565Z,0.29
2022-11-19T09:41:56.515Z,0.32
2022-11-19T09:42:56.479Z,0.15
2022-11-19T09:43:56.458Z,0.18
2022-11-19T09:44:56.405Z,0.22
2022-11-19T09:45:56.419Z,0.18
2022-11-19T09:46:56.335Z,0.28
2022-11-19T09:47:56.293Z,0.23
2022-11-19T09:48:56.253Z,0.28
2022-11-19T09:49:56.211Z,0.29
2022-11-19T09:50:56.176Z,0.29
2022-11-19T09:51:56.197Z,0.34
2022-11-19T09:52:56.118Z,0.47
2022-11-19T09:53:56.061Z,0.39
2022-11-19T09:54:56.019Z,0.56
2022-11-19T09:55:55.979Z,0.47
2022-11-19T09:57:00.393Z,0.62
2022-11-19T09:57:55.972Z,0.80
2022-11-19T09:58:55.890Z,0.78
2022-11-19T09:59:55.829Z,0.87
2022-11-19T10:00:55.793Z,1.05
2022-11-19T10:01:55.751Z,1.06
2022-11-19T10:02:55.791Z,1.22
2022-11-19T10:03:55.739Z,1.30
2022-11-19T10:04:55.641Z,1.31
2022-11-19T10:05:55.604Z,1.45
2022-11-19T10:06:55.659Z,1.53
2022-11-19T10:07:55.528Z,1.45
2022-11-19T10:08:55.541Z,1.45
2022-11-19T10:09:55.453Z,1.44
2022-11-19T10:10:55.422Z,1.44
2022-11-19T10:11:55.375Z,1.55
2022-11-19T10:12:55.334Z,1.70
2022-11-19T10:13:55.292Z,1.73
2022-11-19T10:14:55.312Z,1.73
2022-11-19T10:15:55.225Z,1.68
2022-11-19T10:16:55.187Z,1.77
2022-11-19T10:17:55.146Z,1.68
2022-11-19T10:18:55.119Z,1.58
2022-11-19T10:19:55.066Z,1.59
2022-11-19T10:20:55.086Z,1.45
2022-11-19T10:21:54.992Z,1.50
2022-11-19T10:22:57.554Z,1.40
2022-11-19T10:23:54.910Z,1.44
2022-11-19T10:24:54.886Z,1.31
2022-11-19T10:25:54.844Z,1.35
2022-11-19T10:26:54.932Z,1.24
2022-11-19T10:27:54.771Z,1.22
2022-11-19T10:28:54.733Z,1.22
2022-11-19T10:29:54.785Z,1.30
2022-11-19T10:30:54.660Z,1.28
2022-11-19T10:31:54.612Z,1.28
2022-11-19T10:32:54.655Z,1.22
2022-11-19T10:33:54.552Z,1.22
2022-11-19T10:34:54.505Z,1.30
2022-11-19T10:35:54.473Z,1.34
2022-11-19T10:36:54.442Z,1.34
2022-11-19T10:37:54.457Z,1.49
2022-11-19T10:38:54.403Z,1.53
2022-11-19T10:39:54.309Z,1.59
2022-11-19T10:40:54.272Z,1.52
2022-11-19T10:41:54.233Z,1.50
2022-11-19T10:42:54.194Z,1.49
2022-11-19T10:43:54.245Z,1.44
2022-11-19T10:44:54.120Z,1.49
2022-11-19T10:45:54.086Z,1.56
2022-11-19T10:46:54.051Z,1.56
2022-11-19T10:47:54.018Z,1.58
2022-11-19T10:48:54.032Z,1.50
2022-11-19T10:49:53.937Z,1.66
2022-11-19T10:50:53.905Z,1.70
2022-11-19T10:51:53.863Z,1.77
2022-11-19T10:52:53.818Z,1.87
2022-11-19T10:53:53.856Z,1.84
2022-11-19T10:54:53.742Z,1.88
2022-11-19T10:55:54.879Z,2.06
2022-11-19T10:56:53.667Z,2.00
2022-11-19T10:57:53.693Z,2.20
2022-11-19T10:58:53.591Z,2.33
2022-11-19T10:59:53.614Z,2.51
2022-11-19T11:00:53.591Z,2.60
2022-11-19T11:01:53.479Z,2.64
2022-11-19T11:02:53.454Z,2.72
2022-11-19T11:03:53.408Z,2.74
2022-11-19T11:04:53.372Z,2.69
2022-11-19T11:05:53.381Z,2.65
2022-11-19T11:06:53.304Z,2.68
2022-11-19T11:07:53.291Z,2.71
2022-11-19T11:08:53.223Z,2.74
2022-11-19T11:09:53.203Z,2.61
2022-11-19T11:10:53.146Z,2.77
2022-11-19T11:11:53.159Z,2.75
2022-11-19T11:12:53.069Z,2.83
2022-11-19T11:13:53.032Z,2.85
2022-11-19T11:14:53.017Z,2.87
2022-11-19T11:15:52.954Z,2.90
2022-11-19T11:16:52.942Z,2.98
2022-11-19T11:17:52.945Z,2.97
2022-11-19T11:18:52.854Z,2.98
2022-11-19T11:19:52.817Z,3.00
2022-11-19T11:20:52.762Z,3.03
2022-11-19T11:21:52.741Z,2.97
2022-11-19T11:22:52.711Z,3.14
2022-11-19T11:23:53.189Z,3.21
2022-11-19T11:24:52.626Z,3.23
2022-11-19T11:25:52.588Z,3.29
2022-11-19T11:26:52.550Z,3.23
2022-11-19T11:27:52.506Z,3.26
2022-11-19T11:28:52.487Z,3.05
2022-11-19T11:29:52.504Z,3.04
2022-11-19T11:30:52.405Z,3.04
2022-11-19T11:31:52.369Z,2.75
2022-11-19T11:32:52.353Z,2.79
2022-11-19T11:33:52.359Z,2.71
2022-11-19T11:34:52.263Z,2.62
2022-11-19T11:35:52.265Z,2.57
2022-11-19T11:36:53.124Z,2.60
2022-11-19T11:37:52.181Z,2.60
2022-11-19T11:38:53.047Z,2.57
2022-11-19T11:39:52.124Z,2.53
2022-11-19T11:41:05.327Z,2.56
2022-11-19T11:42:07.636Z,2.56
2022-11-19T11:42:51.965Z,2.61
2022-11-19T11:43:51.919Z,2.65
2022-11-19T11:44:51.892Z,2.64
2022-11-19T11:45:51.898Z,2.60
2022-11-19T11:46:51.846Z,2.64
2022-11-19T11:47:51.831Z,2.47
2022-11-19T11:48:51.800Z,2.44
2022-11-19T11:49:51.704Z,2.46
2022-11-19T11:50:51.654Z,2.36
2022-11-19T11:51:51.625Z,2.38
2022-11-19T11:52:51.597Z,2.31
2022-11-19T11:53:51.688Z,2.24
2022-11-19T11:54:51.518Z,2.26
2022-11-19T11:55:51.474Z,2.25
2022-11-19T11:56:52.018Z,2.18
2022-11-19T11:57:51.406Z,2.28
2022-11-19T11:58:51.361Z,2.29
2022-11-19T11:59:51.386Z,2.29
2022-11-19T12:00:51.291Z,2.28
2022-11-19T12:01:51.259Z,2.29
2022-11-19T12:02:51.214Z,2.24
2022-11-19T12:03:55.167Z,2.33
2022-11-19T12:04:51.135Z,2.28
2022-11-19T12:05:51.278Z,2.28
2022-11-19T12:06:51.075Z,2.31
2022-11-19T12:07:51.025Z,2.31
2022-11-19T12:08:51.518Z,2.32
2022-11-19T12:09:50.956Z,2.35
2022-11-19T12:10:50.913Z,2.38
2022-11-19T12:11:50.951Z,2.32
2022-11-19T12:12:50.831Z,2.33
2022-11-19T12:13:50.804Z,2.35
2022-11-19T12:14:50.761Z,2.46
2022-11-19T12:15:50.735Z,2.51
2022-11-19T12:16:50.686Z,2.42
2022-11-19T12:17:50.700Z,2.44
2022-11-19T12:18:50.605Z,2.47
2022-11-19T12:19:50.569Z,2.44
2022-11-19T12:20:50.529Z,2.32
2022-11-19T12:21:50.501Z,2.43
2022-11-19T12:22:50.485Z,2.39
2022-11-19T12:23:50.478Z,2.49
2022-11-19T12:24:50.382Z,2.47
2022-11-19T12:25:50.344Z,2.60
2022-11-19T12:26:50.307Z,2.60
2022-11-19T12:27:50.270Z,2.69
2022-11-19T12:28:50.238Z,2.65
2022-11-19T12:29:50.246Z,2.72
2022-11-19T12:30:50.212Z,2.74
2022-11-19T12:31:50.114Z,2.79
2022-11-19T12:32:50.080Z,2.86
2022-11-19T12:33:50.045Z,2.79
2022-11-19T12:34:50.009Z,2.86
2022-11-19T12:35:50.028Z,2.83
2022-11-19T12:36:49.922Z,2.83
2022-11-19T12:37:49.897Z,3.01
2022-11-19T12:38:49.859Z,2.93
2022-11-19T12:39:49.821Z,3.00
2022-11-19T12:40:49.783Z,3.00
2022-11-19T12:41:49.791Z,3.01
2022-11-19T12:42:49.711Z,2.98
2022-11-19T12:43:49.669Z,3.14
2022-11-19T12:44:49.629Z,3.14
2022-11-19T12:45:49.585Z,3.07
2022-11-19T12:46:49.561Z,3.03
2022-11-19T12:47:49.596Z,3.04
2022-11-19T12:48:49.507Z,3.08
2022-11-19T12:49:49.439Z,3.26
2022-11-19T12:50:49.411Z,3.18
2022-11-19T12:51:49.456Z,3.14
2022-11-19T12:52:49.334Z,3.22
2022-11-19T12:53:49.397Z,3.32
2022-11-19T12:54:49.249Z,3.34
2022-11-19T12:55:49.210Z,3.40
2022-11-19T12:56:49.208Z,3.47
2022-11-19T12:57:49.155Z,3.55
2022-11-19T12:58:49.103Z,3.60
2022-11-19T12:59:49.156Z,3.62